Time;durP1;ratioP1;P1;durP2;ratioP2;P2;SDS_P1;SDS_P2;PMS_P1;PMS_P2;Temp;Humidity;BMP_temperature;BMP_pressure;BME280_temperature;BME280_humidity;BME280_pressure;Samples;Min_cycle;Max_cycle;Signal;HPM_P1;HPM_P2
2021/08/10 00:09:54;;;;;;;0.50;0.43;;;22.40;99.90;;;;;;20618857;28;20635;-76
2021/08/10 00:19:57;;;;;;;0.53;0.50;;;22.50;99.90;;;;;;20615541;28;20203;-77
2021/08/10 00:30:02;;;;;;;1.00;0.80;;;22.70;99.90;;;;;;20618008;28;20421;-79
2021/08/10 00:40:08;;;;;;;3.50;0.70;;;22.80;99.90;;;;;;20602877;28;20806;-79
2021/08/10 00:50:14;;;;;;;3.17;0.53;;;23.10;99.90;;;;;;20615462;28;20227;-76
2021/08/10 01:00:18;;;;;;;1.27;0.93;;;23.00;99.90;;;;;;20626038;23;20251;-85
2021/08/10 01:10:27;;;;;;;0.67;0.67;;;23.10;99.90;;;;;;20571018;28;20266;-82
2021/08/10 01:21:06;;;;;;;0.47;0.47;;;23.00;99.90;;;;;;20621980;28;20203;-84
2021/08/10 01:31:26;;;;;;;0.87;0.70;;;22.70;99.90;;;;;;20601953;28;20231;-81
2021/08/10 01:41:31;;;;;;;1.90;0.60;;;22.50;99.90;;;;;;20615182;28;20195;-84
2021/08/10 01:51:37;;;;;;;0.40;0.40;;;22.50;99.90;;;;;;20616566;28;20357;-80
2021/08/10 02:01:42;;;;;;;3.77;1.43;;;22.50;99.90;;;;;;20615630;28;20228;-80
2021/08/10 02:11:49;;;;;;;0.37;0.37;;;22.20;99.90;;;;;;20541886;28;20234;-82
2021/08/10 02:21:57;;;;;;;4.87;0.57;;;22.10;99.90;;;;;;20547695;28;20945;-76
2021/08/10 02:32:03;;;;;;;0.43;0.40;;;22.10;99.90;;;;;;20527284;28;20224;-77
2021/08/10 02:42:08;;;;;;;0.30;0.23;;;22.10;99.90;;;;;;20547106;28;20212;-83
2021/08/10 02:52:13;;;;;;;0.83;0.50;;;22.00;99.90;;;;;;20544809;28;20235;-81
2021/08/10 03:02:20;;;;;;;1.43;0.87;;;22.10;99.90;;;;;;20523001;28;20307;-83
2021/08/10 03:12:28;;;;;;;0.63;0.53;;;22.50;99.90;;;;;;20540236;28;20623;-85
2021/08/10 03:22:35;;;;;;;0.70;0.70;;;22.40;99.90;;;;;;20546321;28;20200;-80
2021/08/10 03:32:41;;;;;;;1.33;1.23;;;22.40;99.90;;;;;;20544320;28;20236;-78
2021/08/10 03:42:45;;;;;;;1.20;0.77;;;22.30;99.90;;;;;;20540075;28;20197;-79
2021/08/10 03:52:51;;;;;;;1.00;0.80;;;22.10;99.90;;;;;;20541941;28;20227;-82
2021/08/10 04:02:56;;;;;;;2.30;0.90;;;22.00;99.90;;;;;;20555721;23;20235;-74
2021/08/10 04:13:04;;;;;;;0.83;0.47;;;22.00;99.90;;;;;;20521385;28;20238;-76
2021/08/10 04:23:08;;;;;;;0.53;0.50;;;22.10;99.90;;;;;;20540274;28;21059;-76
2021/08/10 04:33:13;;;;;;;1.73;0.87;;;22.20;99.90;;;;;;20536865;28;20695;-77
2021/08/10 04:43:17;;;;;;;1.40;1.23;;;22.20;99.90;;;;;;20521989;28;20203;-80
2021/08/10 04:53:22;;;;;;;1.07;0.73;;;22.20;99.90;;;;;;20536934;28;20238;-79
2021/08/10 05:03:28;;;;;;;2.87;1.43;;;22.20;99.90;;;;;;20570578;28;21090;-78
2021/08/10 05:13:33;;;;;;;2.10;1.03;;;22.10;99.90;;;;;;20617159;28;20223;-79
2021/08/10 05:23:37;;;;;;;0.70;0.70;;;22.10;99.90;;;;;;20618260;28;20281;-78
2021/08/10 05:33:44;;;;;;;0.63;0.60;;;22.00;99.90;;;;;;20616505;28;20237;-68
2021/08/10 05:43:48;;;;;;;0.80;0.80;;;21.90;99.90;;;;;;20602023;28;20199;-90
2021/08/10 05:53:53;;;;;;;0.60;0.60;;;21.70;99.90;;;;;;20627395;28;20277;-90
2021/08/10 06:03:57;;;;;;;10.60;1.37;;;22.10;99.90;;;;;;20584644;28;20208;-89
2021/08/10 06:14:02;;;;;;;1.27;0.90;;;22.40;99.90;;;;;;20543267;28;20238;-87
2021/08/10 06:24:06;;;;;;;0.47;0.47;;;22.50;99.90;;;;;;20548122;28;20212;-81
2021/08/10 06:34:11;;;;;;;0.87;0.70;;;22.80;99.90;;;;;;20485274;28;20583;-83
2021/08/10 06:44:15;;;;;;;2.20;0.80;;;23.20;99.90;;;;;;20600352;28;20686;-73
2021/08/10 06:54:20;;;;;;;1.38;1.25;;;23.60;99.90;;;;;;20581089;28;20236;-81
2021/08/10 07:04:23;;;;;;;1.58;0.85;;;24.00;99.90;;;;;;20592731;28;20215;-79
2021/08/10 07:14:28;;;;;;;0.88;0.50;;;24.30;99.90;;;;;;20667398;28;20484;-72
2021/08/10 07:24:35;;;;;;;1.35;1.30;;;24.50;99.90;;;;;;20662804;28;20210;-78
2021/08/10 07:34:41;;;;;;;2.55;0.57;;;24.60;99.90;;;;;;20590618;28;20701;-82
2021/08/10 07:44:51;;;;;;;1.20;1.10;;;25.20;99.90;;;;;;20635091;28;20529;-82
2021/08/10 07:54:56;;;;;;;1.23;0.88;;;25.60;99.90;;;;;;20620468;28;20222;-82
2021/08/10 08:05:00;;;;;;;4.57;2.40;;;24.90;99.90;;;;;;20608808;28;20314;-77
2021/08/10 08:15:09;;;;;;;1.20;0.65;;;25.00;99.90;;;;;;20612506;28;20372;-83
2021/08/10 08:25:14;;;;;;;0.80;0.73;;;25.40;99.90;;;;;;20614495;28;20193;-81
2021/08/10 08:35:20;;;;;;;1.27;0.68;;;25.70;99.90;;;;;;20589976;28;20219;-86
2021/08/10 08:45:23;;;;;;;0.82;0.73;;;26.00;99.90;;;;;;20558254;28;20227;-74
2021/08/10 08:55:35;;;;;;;7.22;1.17;;;26.30;99.90;;;;;;20619020;28;20717;-81
2021/08/10 09:05:47;;;;;;;1.13;0.90;;;26.30;99.90;;;;;;20623209;28;20300;-76
2021/08/10 09:15:53;;;;;;;1.38;0.95;;;26.30;99.90;;;;;;20610483;28;20678;-82
2021/08/10 09:25:57;;;;;;;9.75;0.77;;;26.60;99.90;;;;;;20618126;28;20199;-82
2021/08/10 09:36:20;;;;;;;0.90;0.75;;;27.20;99.90;;;;;;20618015;28;20227;-75
2021/08/10 09:46:23;;;;;;;0.98;0.60;;;27.10;99.90;;;;;;20596658;28;20282;-77
2021/08/10 09:56:50;;;;;;;1.30;0.77;;;27.00;99.90;;;;;;20620487;28;20231;-79
2021/08/10 10:06:58;;;;;;;12.45;0.68;;;27.10;99.90;;;;;;20619270;28;20295;-84
2021/08/10 10:17:05;;;;;;;0.28;0.25;;;27.70;99.90;;;;;;20629207;28;20254;-75
2021/08/10 10:27:11;;;;;;;1.13;0.63;;;27.50;99.90;;;;;;20610448;28;20286;-80
2021/08/10 10:37:21;;;;;;;0.40;0.40;;;28.10;99.90;;;;;;20613503;28;20223;-85
2021/08/10 10:47:37;;;;;;;4.05;0.90;;;27.80;99.90;;;;;;20635327;28;20942;-84
2021/08/10 10:57:43;;;;;;;1.23;0.75;;;27.20;99.90;;;;;;20611477;28;20300;-85
2021/08/10 11:07:50;;;;;;;1.17;1.02;;;27.90;99.90;;;;;;20594305;28;20598;-72
2021/08/10 11:18:23;;;;;;;4.45;1.15;;;28.40;99.90;;;;;;20629881;28;20522;-82
2021/08/10 11:28:29;;;;;;;2.42;0.68;;;27.90;99.90;;;;;;20622589;28;20726;-85
2021/08/10 11:38:34;;;;;;;0.60;0.50;;;27.30;99.90;;;;;;20626483;28;20231;-82
2021/08/10 11:48:46;;;;;;;1.42;1.15;;;27.00;99.90;;;;;;20624125;28;20880;-85
2021/08/10 11:58:53;;;;;;;0.52;0.52;;;27.50;99.90;;;;;;20603646;28;20310;-82
2021/08/10 12:09:04;;;;;;;1.73;1.10;;;28.20;99.90;;;;;;20618316;28;20558;-80
2021/08/10 12:19:09;;;;;;;5.50;1.05;;;27.90;99.90;;;;;;20621545;28;20233;-84
2021/08/10 12:29:13;;;;;;;3.45;0.82;;;27.20;99.90;;;;;;20607884;28;20289;-86
2021/08/10 12:39:19;;;;;;;1.50;1.20;;;27.20;99.90;;;;;;20623665;28;20219;-81
2021/08/10 12:49:35;;;;;;;0.43;0.43;;;27.20;99.90;;;;;;20570850;28;20441;-81
2021/08/10 12:59:44;;;;;;;0.45;0.45;;;27.30;99.90;;;;;;20608190;28;20242;-79
2021/08/10 13:09:56;;;;;;;0.80;0.80;;;26.60;99.90;;;;;;20607099;28;20326;-73
2021/08/10 13:20:08;;;;;;;1.73;1.00;;;26.50;99.90;;;;;;20628386;28;20199;-81
2021/08/10 13:30:27;;;;;;;0.73;0.55;;;26.80;99.90;;;;;;20525284;28;20219;-88
2021/08/10 13:40:33;;;;;;;1.33;1.08;;;27.10;99.90;;;;;;20536427;28;20254;-88
2021/08/10 13:50:38;;;;;;;0.88;0.88;;;27.70;99.90;;;;;;20587904;28;20219;-82
2021/08/10 14:00:44;;;;;;;1.02;0.73;;;27.60;99.90;;;;;;20613917;28;20223;-85
2021/08/10 14:10:48;;;;;;;2.08;0.60;;;27.30;99.90;;;;;;20632340;28;20329;-83
2021/08/10 14:20:53;;;;;;;1.05;0.73;;;26.80;99.90;;;;;;20625658;28;20649;-82
2021/08/10 14:30:57;;;;;;;2.28;0.82;;;27.90;99.90;;;;;;20616163;28;20242;-82
2021/08/10 14:41:03;;;;;;;1.10;0.57;;;28.90;99.90;;;;;;20632716;28;20219;-81
2021/08/10 14:51:08;;;;;;;2.13;1.00;;;29.20;99.90;;;;;;20629225;28;20706;-82
2021/08/10 15:01:18;;;;;;;1.23;0.90;;;30.10;99.90;;;;;;20610630;28;20702;-81
2021/08/10 15:11:22;;;;;;;4.40;1.15;;;32.50;99.90;;;;;;20608616;28;20234;-82
2021/08/10 15:21:28;;;;;;;1.70;1.60;;;34.40;99.90;;;;;;20625708;28;20195;-79
2021/08/10 15:31:32;;;;;;;0.77;0.70;;;33.90;99.90;;;;;;20620832;28;20231;-83
2021/08/10 15:41:38;;;;;;;1.27;0.80;;;33.90;99.90;;;;;;20607454;28;20196;-84
2021/08/10 15:51:42;;;;;;;1.83;1.67;;;34.40;99.90;;;;;;20605784;28;20347;-75
2021/08/10 16:01:50;;;;;;;1.15;0.90;;;33.10;99.90;;;;;;20593392;28;20536;-74
2021/08/10 16:11:58;;;;;;;0.95;0.85;;;31.60;99.90;;;;;;20612528;28;20261;-73
2021/08/10 16:22:04;;;;;;;1.33;1.08;;;31.00;99.90;;;;;;20613814;28;20184;-73
2021/08/10 16:32:09;;;;;;;2.22;1.58;;;31.00;99.90;;;;;;20595142;28;20349;-82
2021/08/10 16:42:14;;;;;;;1.23;1.08;;;30.70;99.90;;;;;;20586645;28;20637;-83
2021/08/10 16:52:18;;;;;;;1.98;1.17;;;30.50;99.90;;;;;;20602373;28;20232;-84
2021/08/10 17:02:23;;;;;;;1.30;0.90;;;29.60;99.90;;;;;;20521486;28;20238;-84
2021/08/10 17:12:30;;;;;;;1.42;0.90;;;29.10;99.90;;;;;;20579436;28;20270;-80
2021/08/10 17:22:41;;;;;;;0.50;0.50;;;28.90;99.90;;;;;;20601293;28;20208;-80
2021/08/10 17:32:48;;;;;;;0.98;0.63;;;28.80;99.90;;;;;;20629405;28;20218;-77
2021/08/10 17:42:53;;;;;;;1.98;0.93;;;28.80;99.90;;;;;;20603389;28;20188;-82
2021/08/10 17:53:00;;;;;;;1.38;0.80;;;28.40;99.90;;;;;;20615205;28;20249;-81
2021/08/10 18:03:05;;;;;;;1.98;1.08;;;27.70;99.90;;;;;;20612287;28;20232;-80
2021/08/10 18:13:09;;;;;;;0.75;0.57;;;27.20;99.90;;;;;;20594845;28;20227;-80
2021/08/10 18:23:25;;;;;;;3.67;0.80;;;27.00;99.90;;;;;;20612067;28;20199;-77
2021/08/10 18:33:31;;;;;;;6.15;1.48;;;26.70;99.90;;;;;;20601089;28;20219;-81
2021/08/10 18:43:36;;;;;;;0.75;0.35;;;26.70;99.90;;;;;;20627984;28;20426;-75
2021/08/10 18:53:40;;;;;;;2.05;1.08;;;26.50;99.90;;;;;;20626119;28;20334;-83
2021/08/10 19:03:45;;;;;;;2.20;1.25;;;26.10;99.90;;;;;;20632651;28;20289;-79
2021/08/10 19:13:49;;;;;;;2.67;1.25;;;25.90;99.90;;;;;;20629522;28;20223;-80
2021/08/10 19:23:54;;;;;;;1.30;0.90;;;25.70;99.90;;;;;;20651324;28;20988;-81
2021/08/10 19:34:01;;;;;;;1.60;0.93;;;25.60;99.90;;;;;;20615908;28;20231;-79
2021/08/10 19:44:07;;;;;;;2.22;1.73;;;25.50;99.90;;;;;;20621020;28;20625;-81
2021/08/10 19:54:11;;;;;;;1.52;1.27;;;25.30;99.90;;;;;;20620272;28;20687;-81
2021/08/10 20:04:16;;;;;;;3.40;1.48;;;25.20;99.90;;;;;;20625090;28;20306;-83
2021/08/10 20:14:20;;;;;;;2.15;1.27;;;24.90;99.90;;;;;;20630449;28;20227;-88
2021/08/10 20:24:25;;;;;;;1.45;1.10;;;24.70;99.90;;;;;;20629565;28;20192;-81
2021/08/10 20:34:29;;;;;;;8.27;1.20;;;24.60;99.90;;;;;;20651876;28;20581;-81
2021/08/10 20:44:34;;;;;;;1.20;1.10;;;24.20;99.90;;;;;;20705829;28;20770;-80
2021/08/10 20:54:38;;;;;;;2.13;1.73;;;24.00;99.90;;;;;;20699626;28;20340;-78
2021/08/10 21:04:44;;;;;;;0.98;0.90;;;24.00;99.90;;;;;;20598222;28;20636;-75
2021/08/10 21:14:48;;;;;;;1.92;1.23;;;23.90;99.90;;;;;;20614858;28;20226;-75
2021/08/10 21:24:53;;;;;;;1.07;0.63;;;23.60;99.90;;;;;;20609556;28;20219;-73
2021/08/10 21:34:57;;;;;;;1.07;0.80;;;23.40;99.90;;;;;;20610345;28;20227;-74
2021/08/10 21:45:02;;;;;;;3.17;1.27;;;23.40;99.90;;;;;;20611210;28;20207;-76
2021/08/10 21:55:06;;;;;;;4.07;1.23;;;23.30;99.90;;;;;;20611051;28;20230;-78
2021/08/10 22:05:11;;;;;;;2.87;1.53;;;23.30;99.90;;;;;;20603932;28;20237;-75
2021/08/10 22:15:15;;;;;;;1.43;1.23;;;23.40;99.90;;;;;;20614979;28;20242;-74
2021/08/10 22:25:20;;;;;;;6.27;1.10;;;23.30;99.90;;;;;;20622990;28;20204;-75
2021/08/10 22:35:24;;;;;;;5.40;2.77;;;23.10;99.90;;;;;;20625707;28;20535;-74
2021/08/10 22:45:32;;;;;;;1.20;0.90;;;23.00;99.90;;;;;;20622196;28;20203;-76
2021/08/10 22:55:37;;;;;;;0.70;0.70;;;22.80;99.90;;;;;;20619657;28;20222;-76
2021/08/10 23:05:43;;;;;;;0.83;0.70;;;22.50;99.90;;;;;;20609572;28;20227;-74
2021/08/10 23:15:46;;;;;;;1.30;0.77;;;22.60;99.90;;;;;;20590300;28;20695;-76
2021/08/10 23:25:51;;;;;;;0.67;0.67;;;22.20;99.90;;;;;;20847321;23;20239;-75
2021/08/10 23:35:58;;;;;;;0.43;0.40;;;22.20;99.90;;;;;;20658272;28;20230;-73
2021/08/10 23:46:02;;;;;;;3.43;0.87;;;22.40;99.90;;;;;;20602657;28;20478;-74
2021/08/10 23:56:07;;;;;;;2.10;0.80;;;22.40;99.90;;;;;;20681125;28;20357;-74
